Taiko Maru — JI3683 — position and weather

sailwx.info

Track history (hours):
 
Tides and Currents Weather Stations Pressure Air Temp Water Temp Dewpoint Dewpoint Depression Visibility Wind Speed Wind Dir Waves Ship Positions

Taiko Maru

Last reported at 2018-Feb-18 03:28 UTC. Time now 2018-Feb-18 03:34 UTC.
Position N 34°14' E 135°08'.

Length 118 m; draft 7.3 m.

Type: Cargo ship. MMSI: 431301547.

Date/timePositionNaut miles runAvg speedWind from/ knotsBaromVisibWave heightAir tempDewpointWater temp
2018-Feb-18 03:28N 34°14' E 135°08'0 0.0
2018-Feb-18 02:46N 34°14' E 135°08'0 0.0
2018-Feb-18 02:28N 34°14' E 135°08'0 0.0
2018-Feb-18 01:58N 34°14' E 135°08'0 0.0
2018-Feb-18 01:28N 34°14' E 135°08'0 0.0
2018-Feb-18 00:55N 34°14' E 135°08'0 0.0
2018-Feb-18 00:28N 34°14' E 135°08'0 0.0
2018-Feb-17 23:43N 34°14' E 135°08'0 0.0
2018-Feb-17 23:28N 34°14' E 135°08'0 0.0
2018-Feb-17 22:58N 34°14' E 135°08'0 0.0
2018-Feb-17 22:28N 34°14' E 135°08'1 1.9
2018-Feb-17 22:00N 34°14' E 135°07'2 4.9
2018-Feb-17 21:30N 34°12' E 135°06'1 1.8
2018-Feb-17 20:58N 34°11' E 135°07'0 0.0
2018-Feb-17 20:28N 34°11' E 135°07'0 0.1
2018-Feb-17 19:58N 34°11' E 135°07'0 0.1
2018-Feb-17 19:28N 34°11' E 135°07'0 0.0
2018-Feb-17 18:58N 34°11' E 135°07'0 0.0
2018-Feb-17 18:28N 34°11' E 135°07'0 0.0
2018-Feb-17 17:58N 34°11' E 135°07'0 0.0
2018-Feb-17 17:28N 34°11' E 135°07'0 0.0
2018-Feb-17 16:58N 34°11' E 135°07'0 0.1
2018-Feb-17 16:28N 34°11' E 135°07'0 0.1
2018-Feb-17 15:58N 34°11' E 135°07'0 0.0
2018-Feb-17 15:28N 34°11' E 135°07'0 0.1
2018-Feb-17 14:58N 34°11' E 135°07'0 0.1
2018-Feb-17 14:28N 34°11' E 135°07'0 0.0
2018-Feb-17 13:58N 34°11' E 135°07'0 0.0
2018-Feb-17 13:28N 34°11' E 135°07'0 0.0
2018-Feb-17 12:58N 34°11' E 135°07'0 0.0
2018-Feb-17 12:28N 34°11' E 135°07'0 0.0
2018-Feb-17 11:58N 34°11' E 135°07'0 0.0
2018-Feb-17 11:28N 34°11' E 135°07'0 0.0
2018-Feb-17 10:59N 34°11' E 135°07'2 3.9
2018-Feb-17 10:31N 34°12' E 135°05'612.8
2018-Feb-17 10:00N 34°16' E 134°59'612.2
2018-Feb-17 09:30N 34°22' E 134°60'612.8
2018-Feb-17 09:01N 34°28' E 135°01'611.9
2018-Feb-17 08:30N 34°34' E 135°03'611.2
2018-Feb-17 08:01N 34°36' E 134°57'713.7
2018-Feb-17 07:31N 34°38' E 134°49'612.8
2018-Feb-17 07:01N 34°40' E 134°42'712.3
2018-Feb-17 06:28N 34°43' E 134°34'613.1
2018-Feb-17 05:59N 34°42' E 134°26'4 0.7
2018-Feb-16 23:52N 34°45' E 134°22'0 0.3
2018-Feb-16 23:30N 34°45' E 134°22'3 5.8
2018-Feb-16 23:00N 34°42' E 134°23'612.4
2018-Feb-16 22:30N 34°43' E 134°31'611.7
2018-Feb-16 22:01N 34°43' E 134°38'611.7
2018-Feb-16 21:31N 34°40' E 134°43'612.0
2018-Feb-16 21:01N 34°38' E 134°51'611.9
2018-Feb-16 20:30N 34°37' E 134°58'510.2
2018-Feb-16 20:01N 34°36' E 135°04'4 8.6
2018-Feb-16 19:30N 34°32' E 135°05'612.5
2018-Feb-16 19:01N 34°26' E 135°03'612.3
2018-Feb-16 18:31N 34°20' E 135°00'510.5
2018-Feb-16 18:01N 34°15' E 134°59'611.3
2018-Feb-16 17:30N 34°09' E 134°60'612.1
2018-Feb-16 17:00N 34°03' E 134°60'612.2
2018-Feb-16 16:31N 33°57' E 134°59'611.5
2018-Feb-16 16:01N 33°51' E 135°00'612.5
2018-Feb-16 15:30N 33°47' E 135°06'1412.8
2018-Feb-16 14:26N 33°36' E 135°17'15811.5
2018-Feb-16 00:45N 34°26' E 138°17'311.5
2018-Feb-16 00:27N 34°27' E 138°21'512.1
2018-Feb-16 00:00N 34°28' E 138°27'1012.1
2018-Feb-15 23:12N 34°29' E 138°39'312.2
2018-Feb-15 23:00N 34°30' E 138°42'812.5
2018-Feb-15 22:22N 34°31' E 138°51'512.9
2018-Feb-15 22:00N 34°32' E 138°57'612.2
2018-Feb-15 21:30N 34°33' E 139°04'612.5
2018-Feb-15 21:00N 34°35' E 139°12'712.1
2018-Feb-15 20:28N 34°36' E 139°19'511.7
2018-Feb-15 20:00N 34°38' E 139°26'812.5
2018-Feb-15 19:21N 34°42' E 139°34'1113.4
2018-Feb-15 18:31N 34°47' E 139°46'1613.0
2018-Feb-15 17:20N 34°55' E 140°02'413.3
2018-Feb-15 17:01N 34°57' E 140°07'  
2018-Feb-12 08:29N 34°60' E 140°13'611.3
2018-Feb-12 07:59N 34°57' E 140°07'1512.2
2018-Feb-12 06:45N 34°49' E 139°51'612.9
2018-Feb-12 06:15N 34°46' E 139°44'412.5
2018-Feb-12 05:55N 34°44' E 139°40'511.2
2018-Feb-12 05:30N 34°41' E 139°35'613.0
2018-Feb-12 05:00N 34°39' E 139°28'813.6
2018-Feb-12 04:26N 34°37' E 139°19'613.6
2018-Feb-12 04:00N 34°35' E 139°12'713.3
2018-Feb-12 03:30N 34°33' E 139°04'612.7
2018-Feb-12 03:00N 34°32' E 138°57'612.0
2018-Feb-12 02:29N 34°30' E 138°49'612.0
2018-Feb-12 01:58N 34°29' E 138°42'612.2
2018-Feb-12 01:30N 34°29' E 138°35'712.2
2018-Feb-12 00:56N 34°28' E 138°27'612.5
2018-Feb-12 00:29N 34°27' E 138°20'712.3
2018-Feb-11 23:54N 34°25' E 138°12'512.4
2018-Feb-11 23:30N 34°24' E 138°06'712.7
2018-Feb-11 22:57N 34°22' E 137°58'14610.9
2018-Feb-11 09:38N 33°45' E 135°08'312.6
2018-Feb-11 09:25N 33°47' E 135°06'512.9
2018-Feb-11 09:00N 33°51' E 135°02'612.1
2018-Feb-11 08:30N 33°57' E 135°01'612.6
2018-Feb-11 08:01N 34°03' E 135°02'612.0
2018-Feb-11 07:30N 34°09' E 135°04'3 6.3
2018-Feb-11 07:01N 34°11' E 135°07'0 0.0
2018-Feb-11 06:30N 34°11' E 135°07'0 0.0
2018-Feb-11 06:01N 34°11' E 135°07'0 0.0
2018-Feb-11 05:30N 34°11' E 135°07'0 0.0
2018-Feb-11 05:00N 34°11' E 135°07'0 0.0
2018-Feb-11 04:31N 34°11' E 135°07'0 0.0
2018-Feb-11 04:01N 34°11' E 135°07'0 0.2
2018-Feb-11 03:30N 34°11' E 135°07'3 7.0
2018-Feb-11 03:00N 34°14' E 135°06'2 3.8
2018-Feb-11 02:30N 34°14' E 135°08'0 0.1
2018-Feb-11 02:00N 34°14' E 135°08'0 0.0
2018-Feb-11 01:30N 34°14' E 135°08'0 0.0
2018-Feb-11 01:00N 34°14' E 135°08'0 0.0
2018-Feb-11 00:30N 34°14' E 135°08'0 0.0
2018-Feb-11 00:00N 34°14' E 135°08'0 0.0
2018-Feb-10 23:30N 34°14' E 135°08'0 0.0
2018-Feb-10 23:00N 34°14' E 135°08'1 1.4
2018-Feb-10 22:30N 34°14' E 135°07'2 4.3
2018-Feb-10 22:00N 34°14' E 135°04'4 7.3
2018-Feb-10 21:30N 34°10' E 135°03'611.6
2018-Feb-10 21:00N 34°05' E 135°01'611.6
2018-Feb-10 20:30N 33°59' E 134°58'611.4
2018-Feb-10 20:00N 33°54' E 134°55'611.3
2018-Feb-10 19:30N 33°49' E 134°51'610.7
2018-Feb-10 18:54N 33°45' E 134°46'410.6
2018-Feb-10 18:30N 33°41' E 134°43'  
Track history (hours):
 
Tides and Currents Weather Stations Pressure Air Temp Water Temp Dewpoint Dewpoint Depression Visibility Wind Speed Wind Dir Waves Ship Positions

Taiko Maru

Last reported at 2018-Feb-18 03:28 UTC. Time now 2018-Feb-18 03:34 UTC.
Position N 34°14' E 135°08'.

Length 118 m; draft 7.3 m.

Type: Cargo ship. MMSI: 431301547.

Date/timePositionNaut miles runAvg speedWind from/ knotsBaromVisibWave heightAir tempDewpointWater temp
2018-Feb-18 03:28N 34°14' E 135°08'0 0.0
2018-Feb-18 02:46N 34°14' E 135°08'0 0.0
2018-Feb-18 02:28N 34°14' E 135°08'0 0.0
2018-Feb-18 01:58N 34°14' E 135°08'0 0.0
2018-Feb-18 01:28N 34°14' E 135°08'0 0.0
2018-Feb-18 00:55N 34°14' E 135°08'0 0.0
2018-Feb-18 00:28N 34°14' E 135°08'0 0.0
2018-Feb-17 23:43N 34°14' E 135°08'0 0.0
2018-Feb-17 23:28N 34°14' E 135°08'0 0.0
2018-Feb-17 22:58N 34°14' E 135°08'0 0.0
2018-Feb-17 22:28N 34°14' E 135°08'1 1.9
2018-Feb-17 22:00N 34°14' E 135°07'2 4.9
2018-Feb-17 21:30N 34°12' E 135°06'1 1.8
2018-Feb-17 20:58N 34°11' E 135°07'0 0.0
2018-Feb-17 20:28N 34°11' E 135°07'0 0.1
2018-Feb-17 19:58N 34°11' E 135°07'0 0.1
2018-Feb-17 19:28N 34°11' E 135°07'0 0.0
2018-Feb-17 18:58N 34°11' E 135°07'0 0.0
2018-Feb-17 18:28N 34°11' E 135°07'0 0.0
2018-Feb-17 17:58N 34°11' E 135°07'0 0.0
2018-Feb-17 17:28N 34°11' E 135°07'0 0.0
2018-Feb-17 16:58N 34°11' E 135°07'0 0.1
2018-Feb-17 16:28N 34°11' E 135°07'0 0.1
2018-Feb-17 15:58N 34°11' E 135°07'0 0.0
2018-Feb-17 15:28N 34°11' E 135°07'0 0.1
2018-Feb-17 14:58N 34°11' E 135°07'0 0.1
2018-Feb-17 14:28N 34°11' E 135°07'0 0.0
2018-Feb-17 13:58N 34°11' E 135°07'0 0.0
2018-Feb-17 13:28N 34°11' E 135°07'0 0.0
2018-Feb-17 12:58N 34°11' E 135°07'0 0.0
2018-Feb-17 12:28N 34°11' E 135°07'0 0.0
2018-Feb-17 11:58N 34°11' E 135°07'0 0.0
2018-Feb-17 11:28N 34°11' E 135°07'0 0.0
2018-Feb-17 10:59N 34°11' E 135°07'2 3.9
2018-Feb-17 10:31N 34°12' E 135°05'612.8
2018-Feb-17 10:00N 34°16' E 134°59'612.2
2018-Feb-17 09:30N 34°22' E 134°60'612.8
2018-Feb-17 09:01N 34°28' E 135°01'611.9
2018-Feb-17 08:30N 34°34' E 135°03'611.2
2018-Feb-17 08:01N 34°36' E 134°57'713.7
2018-Feb-17 07:31N 34°38' E 134°49'612.8
2018-Feb-17 07:01N 34°40' E 134°42'712.3
2018-Feb-17 06:28N 34°43' E 134°34'613.1
2018-Feb-17 05:59N 34°42' E 134°26'4 0.7
2018-Feb-16 23:52N 34°45' E 134°22'0 0.3
2018-Feb-16 23:30N 34°45' E 134°22'3 5.8
2018-Feb-16 23:00N 34°42' E 134°23'612.4
2018-Feb-16 22:30N 34°43' E 134°31'611.7
2018-Feb-16 22:01N 34°43' E 134°38'611.7
2018-Feb-16 21:31N 34°40' E 134°43'612.0
2018-Feb-16 21:01N 34°38' E 134°51'611.9
2018-Feb-16 20:30N 34°37' E 134°58'510.2
2018-Feb-16 20:01N 34°36' E 135°04'4 8.6
2018-Feb-16 19:30N 34°32' E 135°05'612.5
2018-Feb-16 19:01N 34°26' E 135°03'612.3
2018-Feb-16 18:31N 34°20' E 135°00'510.5
2018-Feb-16 18:01N 34°15' E 134°59'611.3
2018-Feb-16 17:30N 34°09' E 134°60'612.1
2018-Feb-16 17:00N 34°03' E 134°60'612.2
2018-Feb-16 16:31N 33°57' E 134°59'611.5
2018-Feb-16 16:01N 33°51' E 135°00'612.5
2018-Feb-16 15:30N 33°47' E 135°06'1412.8
2018-Feb-16 14:26N 33°36' E 135°17'15811.5
2018-Feb-16 00:45N 34°26' E 138°17'311.5
2018-Feb-16 00:27N 34°27' E 138°21'512.1
2018-Feb-16 00:00N 34°28' E 138°27'1012.1
2018-Feb-15 23:12N 34°29' E 138°39'312.2
2018-Feb-15 23:00N 34°30' E 138°42'812.5
2018-Feb-15 22:22N 34°31' E 138°51'512.9
2018-Feb-15 22:00N 34°32' E 138°57'612.2
2018-Feb-15 21:30N 34°33' E 139°04'612.5
2018-Feb-15 21:00N 34°35' E 139°12'712.1
2018-Feb-15 20:28N 34°36' E 139°19'511.7
2018-Feb-15 20:00N 34°38' E 139°26'812.5
2018-Feb-15 19:21N 34°42' E 139°34'1113.4
2018-Feb-15 18:31N 34°47' E 139°46'1613.0
2018-Feb-15 17:20N 34°55' E 140°02'413.3
2018-Feb-15 17:01N 34°57' E 140°07'  
2018-Feb-12 08:29N 34°60' E 140°13'611.3
2018-Feb-12 07:59N 34°57' E 140°07'1512.2
2018-Feb-12 06:45N 34°49' E 139°51'612.9
2018-Feb-12 06:15N 34°46' E 139°44'412.5
2018-Feb-12 05:55N 34°44' E 139°40'511.2
2018-Feb-12 05:30N 34°41' E 139°35'613.0
2018-Feb-12 05:00N 34°39' E 139°28'813.6
2018-Feb-12 04:26N 34°37' E 139°19'613.6
2018-Feb-12 04:00N 34°35' E 139°12'713.3
2018-Feb-12 03:30N 34°33' E 139°04'612.7
2018-Feb-12 03:00N 34°32' E 138°57'612.0
2018-Feb-12 02:29N 34°30' E 138°49'612.0
2018-Feb-12 01:58N 34°29' E 138°42'612.2
2018-Feb-12 01:30N 34°29' E 138°35'712.2
2018-Feb-12 00:56N 34°28' E 138°27'612.5
2018-Feb-12 00:29N 34°27' E 138°20'712.3
2018-Feb-11 23:54N 34°25' E 138°12'512.4
2018-Feb-11 23:30N 34°24' E 138°06'712.7
2018-Feb-11 22:57N 34°22' E 137°58'14610.9
2018-Feb-11 09:38N 33°45' E 135°08'312.6
2018-Feb-11 09:25N 33°47' E 135°06'512.9
2018-Feb-11 09:00N 33°51' E 135°02'612.1
2018-Feb-11 08:30N 33°57' E 135°01'612.6
2018-Feb-11 08:01N 34°03' E 135°02'612.0
2018-Feb-11 07:30N 34°09' E 135°04'3 6.3
2018-Feb-11 07:01N 34°11' E 135°07'0 0.0
2018-Feb-11 06:30N 34°11' E 135°07'0 0.0
2018-Feb-11 06:01N 34°11' E 135°07'0 0.0
2018-Feb-11 05:30N 34°11' E 135°07'0 0.0
2018-Feb-11 05:00N 34°11' E 135°07'0 0.0
2018-Feb-11 04:31N 34°11' E 135°07'0 0.0
2018-Feb-11 04:01N 34°11' E 135°07'0 0.2
2018-Feb-11 03:30N 34°11' E 135°07'3 7.0
2018-Feb-11 03:00N 34°14' E 135°06'2 3.8
2018-Feb-11 02:30N 34°14' E 135°08'0 0.1
2018-Feb-11 02:00N 34°14' E 135°08'0 0.0
2018-Feb-11 01:30N 34°14' E 135°08'0 0.0
2018-Feb-11 01:00N 34°14' E 135°08'0 0.0
2018-Feb-11 00:30N 34°14' E 135°08'0 0.0
2018-Feb-11 00:00N 34°14' E 135°08'0 0.0
2018-Feb-10 23:30N 34°14' E 135°08'0 0.0
2018-Feb-10 23:00N 34°14' E 135°08'1 1.4
2018-Feb-10 22:30N 34°14' E 135°07'2 4.3
2018-Feb-10 22:00N 34°14' E 135°04'4 7.3
2018-Feb-10 21:30N 34°10' E 135°03'611.6
2018-Feb-10 21:00N 34°05' E 135°01'611.6
2018-Feb-10 20:30N 33°59' E 134°58'611.4
2018-Feb-10 20:00N 33°54' E 134°55'611.3
2018-Feb-10 19:30N 33°49' E 134°51'610.7
2018-Feb-10 18:54N 33°45' E 134°46'410.6
2018-Feb-10 18:30N 33°41' E 134°43'  

Dump ship's entire track history